Station History

Weather Underground - logo

Station Historical Data
Daily Summary for February 3, 2018 Units:  Metric    English   Both
« Previous Day
Next Day »
Daily Weekly Monthly Yearly Custom
  High: Low: Average:
Temperature: 22.7 °C 5 °C 13.1 °C
Dew Point: 12.1 °C 4.1 °C 8.9 °C
Humidity: 96 % 47 % 78 %
Wind Speed: 5.6 km/h 0 km/h 0.6 km/h
Wind Gust: 5.6 km/h - -
Wind:- - West
Pressure: 1023.6 hPa 1018.5 hPa -
Precipitation: 0.25 mm    
Historical Graphs
 
 
Tabular Data for February 3, 2018
Time Temperature Dew Point Pressure Wind Wind Speed Wind Gust Humidity Rainfall Rate (Hourly)
00:01 8.9 °C 7.7 °C 1021.6 hPa Calm     92 % 0 mm
00:06 9 °C 7.8 °C 1021.6 hPa Calm     92 % 0 mm
00:11 9 °C 7.8 °C 1021.6 hPa North 1.9 km/h 1.9 km/h 92 % 0 mm
00:16 8.9 °C 7.6 °C 1021.6 hPa Calm     91 % 0 mm
00:21 8.9 °C 7.6 °C 1021.6 hPa Calm     91 % 0 mm
00:26 9 °C 7.8 °C 1021.6 hPa Calm     92 % 0 mm
00:31 8.9 °C 7.7 °C 1021.6 hPa Calm     92 % 0 mm
00:36 8.8 °C 7.6 °C 1021.6 hPa Calm     92 % 0 mm
00:41 8.8 °C 7.6 °C 1021.6 hPa North 1.9 km/h 1.9 km/h 92 % 0 mm
00:46 8.8 °C 7.6 °C 1021.2 hPa Calm     92 % 0 mm
00:51 8.8 °C 7.6 °C 1021.2 hPa Calm     92 % 0 mm
00:56 8.5 °C 6.9 °C 1021.2 hPa Calm     90 % 0 mm
01:01 8.3 °C 6.9 °C 1021.2 hPa Calm     91 % 0 mm
01:06 8.1 °C 6.6 °C 1021.2 hPa Calm     90 % 0 mm
01:11 7.9 °C 6.6 °C 1021.2 hPa Calm     91 % 0 mm
01:16 7.8 °C 6.4 °C 1021.2 hPa Calm     91 % 0 mm
01:21 7.7 °C 6.3 °C 1021.2 hPa Calm     91 % 0 mm
01:26 7.4 °C 5.8 °C 1021.2 hPa Calm     90 % 0 mm
01:31 7.2 °C 5.8 °C 1021.2 hPa Calm     91 % 0 mm
01:36 7.1 °C 5.7 °C 1021.2 hPa Calm     91 % 0 mm
01:41 7 °C 5.8 °C 1021.2 hPa Calm     92 % 0 mm
01:46 6.9 °C 5.7 °C 1021.2 hPa Calm     92 % 0 mm
01:51 6.8 °C 5.6 °C 1021.2 hPa Calm     92 % 0 mm
01:56 6.8 °C 5.6 °C 1021.2 hPa Calm     92 % 0 mm
02:01 6.7 °C 5.7 °C 1021.2 hPa Calm     93 % 0 mm
02:06 6.7 °C 5.6 °C 1021.2 hPa Calm     93 % 0 mm
02:11 6.6 °C 5.6 °C 1021.2 hPa Calm     93 % 0 mm
02:16 6.6 °C 5.5 °C 1021.2 hPa Calm     93 % 0 mm
02:21 6.5 °C 5.4 °C 1021.2 hPa Calm     93 % 0 mm
02:31 6.7 °C 5.8 °C 1021.2 hPa Calm     94 % 0 mm
02:36 6.8 °C 5.9 °C 1021.2 hPa Calm     94 % 0 mm
02:41 6.9 °C 6 °C 1021.2 hPa Calm     94 % 0 mm
02:46 7.1 °C 6.2 °C 1021.2 hPa Calm     94 % 0 mm
02:51 6.8 °C 5.7 °C 1021.2 hPa Calm     93 % 0 mm
02:56 6.7 °C 5.8 °C 1021.2 hPa Calm     94 % 0 mm
03:01 6.7 °C 5.6 °C 1021.2 hPa Calm     93 % 0 mm
03:06 6.7 °C 5.8 °C 1021.2 hPa Calm     94 % 0 mm
03:11 6.9 °C 6 °C 1021.2 hPa Calm     94 % 0 mm
03:16 7.1 °C 6.3 °C 1021.2 hPa Calm     95 % 0 mm
03:21 7.2 °C 6.4 °C 1021.2 hPa NE 1.6 km/h   95 % 0 mm
03:26 7.3 °C 6.6 °C 1021.2 hPa Calm     95 % 0 mm
03:31 7.3 °C 6.4 °C 1021.2 hPa Calm     94 % 0 mm
03:36 7.4 °C 6.5 °C 1021.2 hPa Calm     94 % 0 mm
03:41 7.5 °C 6.6 °C 1021.2 hPa Calm     94 % 0 mm
03:46 7.6 °C 6.7 °C 1021.2 hPa Calm     94 % 0 mm
03:52 7.7 °C 6.8 °C 1021.2 hPa Calm     94 % 0 mm
03:57 7.8 °C 6.9 °C 1021.2 hPa Calm     94 % 0 mm
04:02 8.1 °C 7.3 °C 1021.2 hPa Calm     95 % 0 mm
04:07 8.2 °C 7.3 °C 1021.2 hPa Calm     94 % 0 mm
04:12 7.9 °C 6.8 °C 1021.2 hPa Calm     93 % 0 mm
04:17 7.5 °C 6.3 °C 1021.2 hPa Calm     92 % 0 mm
04:22 7.2 °C 5.9 °C 1021.2 hPa Calm     92 % 0 mm
04:27 7 °C 5.9 °C 1021.2 hPa Calm     93 % 0 mm
04:32 6.7 °C 5.5 °C 1021.2 hPa Calm     92 % 0 mm
04:37 6.6 °C 5.5 °C 1021.2 hPa Calm     93 % 0 mm
04:42 6.4 °C 5.4 °C 1021.2 hPa Calm     93 % 0 mm
04:47 6.4 °C 5.4 °C 1021.2 hPa Calm     93 % 0 mm
04:52 6.4 °C 5.5 °C 1021.2 hPa Calm     94 % 0 mm
04:57 6.3 °C 5.4 °C 1021.2 hPa Calm     94 % 0 mm
05:02 6.2 °C 5.1 °C 1021.2 hPa Calm     93 % 0 mm
05:07 6.1 °C 5.2 °C 1021.6 hPa Calm     94 % 0 mm
05:12 6.1 °C 5.2 °C 1021.6 hPa Calm     94 % 0 mm
05:17 6.1 °C 5.2 °C 1021.6 hPa Calm     94 % 0 mm
05:22 5.8 °C 4.8 °C 1021.6 hPa Calm     93 % 0 mm
05:27 5.7 °C 4.7 °C 1021.6 hPa Calm     93 % 0 mm
05:32 5.7 °C 4.6 °C 1021.9 hPa Calm     93 % 0 mm
05:37 5.8 °C 4.9 °C 1021.9 hPa Calm     94 % 0 mm
05:42 6 °C 5.1 °C 1021.9 hPa Calm     94 % 0 mm
05:47 5.8 °C 4.8 °C 1021.9 hPa Calm     93 % 0 mm
05:52 5.8 °C 4.9 °C 1021.9 hPa Calm     94 % 0 mm
05:57 5.8 °C 4.9 °C 1021.9 hPa Calm     94 % 0 mm
06:02 5.6 °C 4.6 °C 1021.9 hPa Calm     93 % 0 mm
06:07 5.7 °C 4.8 °C 1021.9 hPa Calm     94 % 0 mm
06:12 5.6 °C 4.5 °C 1021.9 hPa Calm     93 % 0 mm
06:17 5.5 °C 4.6 °C 1021.9 hPa Calm     94 % 0 mm
06:22 5.5 °C 4.6 °C 1021.9 hPa Calm     94 % 0 mm
06:27 5.3 °C 4.3 °C 1021.9 hPa Calm     93 % 0 mm
06:32 5.2 °C 4.3 °C 1022.2 hPa Calm     94 % 0 mm
06:37 5.2 °C 4.3 °C 1022.2 hPa Calm     94 % 0 mm
06:42 5.3 °C 4.4 °C 1022.2 hPa Calm     94 % 0 mm
06:47 5.3 °C 4.4 °C 1022.2 hPa Calm     94 % 0 mm
06:52 5.3 °C 4.4 °C 1022.6 hPa Calm     94 % 0 mm
06:57 5.3 °C 4.4 °C 1022.6 hPa Calm     94 % 0 mm
07:02 5.2 °C 4.3 °C 1022.6 hPa Calm     94 % 0 mm
07:07 5.1 °C 4.2 °C 1022.6 hPa Calm     94 % 0 mm
07:12 5.1 °C 4.2 °C 1022.6 hPa Calm     94 % 0 mm
07:17 5 °C 4.1 °C 1022.6 hPa Calm     94 % 0 mm
07:22 5.1 °C 4.2 °C 1022.6 hPa Calm     94 % 0 mm
07:27 5.5 °C 4.8 °C 1022.6 hPa Calm     95 % 0 mm
07:32 5.7 °C 5 °C 1022.6 hPa Calm     95 % 0 mm
07:37 5.8 °C 5.1 °C 1022.6 hPa Calm     95 % 0 mm
07:42 5.9 °C 5.2 °C 1022.9 hPa Calm     95 % 0 mm
07:47 5.9 °C 5.2 °C 1022.9 hPa Calm     95 % 0 mm
07:52 6.2 °C 5.4 °C 1022.9 hPa Calm     95 % 0 mm
07:57 6.6 °C 5.9 °C 1022.9 hPa Calm     95 % 0 mm
08:02 7.2 °C 6.6 °C 1022.9 hPa Calm     96 % 0 mm
08:07 7.8 °C 7.2 °C 1022.9 hPa Calm     96 % 0 mm
08:12 8.5 °C 7.9 °C 1022.9 hPa Calm     96 % 0 mm
08:17 9.1 °C 8.4 °C 1022.9 hPa Calm     96 % 0 mm
08:22 9.7 °C 8.7 °C 1022.9 hPa Calm     93 % 0 mm
08:27 10.2 °C 8.7 °C 1022.9 hPa Calm     90 % 0 mm
08:32 10.7 °C 8.9 °C 1022.9 hPa Calm   0.2 km/h 89 % 0 mm
08:37 11.1 °C 9.2 °C 1023.2 hPa Calm     88 % 0 mm
08:42 11.3 °C 9.4 °C 1022.9 hPa ESE 1.9 km/h 1.9 km/h 88 % 0.25 mm
08:47 11.6 °C 9.6 °C 1022.9 hPa SSE 1.9 km/h   88 % 0.25 mm
08:52 11.9 °C 9.8 °C 1022.9 hPa Calm     87 % 0.25 mm
08:57 12.3 °C 10.2 °C 1022.9 hPa SE 1.9 km/h 1.9 km/h 87 % 0.25 mm
09:02 12.6 °C 10.3 °C 1023.2 hPa Calm   0.2 km/h 86 % 0.25 mm
09:07 12.9 °C 10.6 °C 1023.2 hPa Calm     86 % 0.25 mm
09:12 13.2 °C 10.8 °C 1023.2 hPa ESE 1.9 km/h   85 % 0.25 mm
09:17 13.6 °C 10.9 °C 1023.2 hPa Calm     84 % 0.25 mm
09:22 13.9 °C 11.1 °C 1023.6 hPa Calm     83 % 0.25 mm
09:27 14.3 °C 11.2 °C 1023.6 hPa Calm     82 % 0.25 mm
09:32 14.6 °C 11.2 °C 1023.6 hPa South 1.9 km/h 1.9 km/h 80 % 0.25 mm
09:37 14.7 °C 11.1 °C 1023.6 hPa Calm     79 % 0.25 mm
09:42 14.9 °C 11.3 °C 1023.2 hPa Calm     79 % 0 mm
09:47 15.3 °C 11.5 °C 1023.2 hPa South 1.9 km/h   78 % 0 mm
09:52 15.5 °C 11.5 °C 1023.2 hPa Calm     77 % 0 mm
09:57 15.7 °C 11.7 °C 1023.6 hPa Calm     77 % 0 mm
10:02 16.2 °C 11.7 °C 1023.6 hPa SSE 1.9 km/h   75 % 0 mm
10:07 16.3 °C 11.5 °C 1023.6 hPa SSE 3.7 km/h   73 % 0 mm
10:12 16.5 °C 11.4 °C 1023.6 hPa SE 3.2 km/h 3.2 km/h 72 % 0 mm
10:17 16.7 °C 11.4 °C 1023.6 hPa ENE 3.7 km/h   71 % 0 mm
10:22 16.9 °C 11.4 °C 1023.6 hPa SSE 3.7 km/h 3.7 km/h 70 % 0 mm
10:27 17.2 °C 11.5 °C 1023.6 hPa Calm   0.3 km/h 69 % 0 mm
10:32 17.5 °C 11.7 °C 1023.6 hPa ESE 1.9 km/h 1.9 km/h 69 % 0 mm
10:37 17.6 °C 11.6 °C 1023.2 hPa Calm     68 % 0 mm
10:42 17.4 °C 11.2 °C 1023.2 hPa Calm     67 % 0 mm
10:47 17.7 °C 11.4 °C 1023.2 hPa SE 1.9 km/h   67 % 0 mm
10:52 17.8 °C 11.4 °C 1023.2 hPa NW 1.9 km/h 1.9 km/h 66 % 0 mm
10:57 17.8 °C 11.3 °C 1023.2 hPa North 1.9 km/h 1.9 km/h 66 % 0 mm
11:02 17.9 °C 11.4 °C 1022.9 hPa Calm     66 % 0 mm
11:07 18 °C 10.8 °C 1022.9 hPa NW 5.6 km/h 5.6 km/h 63 % 0 mm
11:12 18.3 °C 11.3 °C 1022.9 hPa NNW 3.7 km/h 3.7 km/h 64 % 0 mm
11:18 18.4 °C 11.5 °C 1022.9 hPa SE 1.9 km/h 1.9 km/h 64 % 0 mm
11:23 18.7 °C 11.9 °C 1022.6 hPa West 1.9 km/h 1.9 km/h 65 % 0 mm
11:28 18.7 °C 11.8 °C 1022.6 hPa NW 5.6 km/h 5.6 km/h 64 % 0 mm
11:33 18.7 °C 11.6 °C 1022.6 hPa NW 1.9 km/h 1.9 km/h 63 % 0 mm
11:38 19.1 °C 12.1 °C 1022.6 hPa Calm   0.3 km/h 64 % 0 mm
11:43 19.3 °C 11.6 °C 1022.2 hPa NW 1.9 km/h   61 % 0 mm
11:48 19.4 °C 11.7 °C 1022.2 hPa West 1.9 km/h 1.9 km/h 61 % 0 mm
11:53 19.4 °C 11.5 °C 1022.2 hPa NW 1.9 km/h 1.9 km/h 60 % 0 mm
11:58 19.4 °C 11.7 °C 1021.9 hPa WNW 3.7 km/h 3.7 km/h 61 % 0 mm
12:03 19.4 °C 11.5 °C 1021.9 hPa WNW 1.9 km/h 1.9 km/h 60 % 0 mm
12:08 19.6 °C 11.6 °C 1021.6 hPa NW 1.9 km/h 1.9 km/h 60 % 0 mm
12:13 19.7 °C 11.7 °C 1021.6 hPa Calm     60 % 0 mm
12:18 19.7 °C 11.5 °C 1021.6 hPa Calm     59 % 0 mm
12:23 19.9 °C 11.7 °C 1021.6 hPa West 1.9 km/h   59 % 0 mm
12:28 20.3 °C 12 °C 1021.2 hPa Calm     59 % 0 mm
12:33 20.5 °C 11.9 °C 1021.2 hPa NW 3.7 km/h 3.7 km/h 58 % 0 mm
12:38 20.7 °C 10.7 °C 1021.2 hPa NW 1.9 km/h 1.9 km/h 53 % 0 mm
12:43 20.6 °C 11.2 °C 1020.9 hPa WNW 1.9 km/h 1.9 km/h 55 % 0 mm
12:48 20.7 °C 11.3 °C 1020.5 hPa Calm     55 % 0 mm
12:53 21 °C 10.8 °C 1020.5 hPa NW 3.7 km/h 3.7 km/h 52 % 0 mm
12:58 20.9 °C 10.7 °C 1020.5 hPa Calm     52 % 0 mm
13:03 21.2 °C 11.5 °C 1020.5 hPa Calm   0.2 km/h 54 % 0 mm
13:08 21.6 °C 11.6 °C 1020.2 hPa NW 1.9 km/h 1.9 km/h 53 % 0 mm
13:13 21.6 °C 11.6 °C 1020.2 hPa NW 5.6 km/h 5.6 km/h 53 % 0 mm
13:18 21.4 °C 11.4 °C 1020.2 hPa NW 3.7 km/h 3.7 km/h 53 % 0 mm
13:23 21.4 °C 11.4 °C 1020.2 hPa NW 1.9 km/h 1.9 km/h 53 % 0 mm
13:28 21.6 °C 11.9 °C 1019.9 hPa Calm     54 % 0 mm
13:33 21.7 °C 11.4 °C 1019.9 hPa WNW 1.9 km/h 1.9 km/h 52 % 0 mm
13:38 21.7 °C 11.1 °C 1019.9 hPa West 1.9 km/h 1.9 km/h 51 % 0 mm
13:43 21.8 °C 10.6 °C 1019.5 hPa West 1.9 km/h   49 % 0 mm
13:48 21.9 °C 11.1 °C 1019.5 hPa NW 5.6 km/h 5.6 km/h 50 % 0 mm
13:53 21.9 °C 10.4 °C 1019.5 hPa NW 1.9 km/h   48 % 0 mm
13:58 22 °C 10.5 °C 1019.5 hPa NW 1.9 km/h 1.9 km/h 48 % 0 mm
14:03 22.1 °C 10.6 °C 1019.5 hPa West 3.7 km/h 3.7 km/h 48 % 0 mm
14:08 22.2 °C 11 °C 1019.2 hPa West 5.6 km/h 5.6 km/h 49 % 0 mm
14:13 22.2 °C 11 °C 1019.2 hPa NW 1.9 km/h 1.9 km/h 49 % 0 mm
14:18 22.2 °C 10.7 °C 1019.5 hPa Calm     48 % 0 mm
14:23 22.3 °C 11.1 °C 1019.5 hPa WNW 3.2 km/h 3.2 km/h 49 % 0 mm
14:28 22.4 °C 10.8 °C 1019.5 hPa Calm     48 % 0 mm
14:35 22.4 °C 10.9 °C 1019.2 hPa WNW 3.7 km/h 3.7 km/h 48 % 0 mm
14:40 22.5 °C 11.2 °C 1019.2 hPa NW 1.9 km/h 1.9 km/h 49 % 0 mm
14:45 22.7 °C 10.8 °C 1019.2 hPa WNW 3.7 km/h 3.7 km/h 47 % 0 mm
14:50 22.7 °C 11.1 °C 1019.2 hPa Calm   0.3 km/h 48 % 0 mm
14:55 22.7 °C 11.2 °C 1019.2 hPa NNW 1.9 km/h 1.9 km/h 48 % 0 mm
15:00 22.6 °C 11.1 °C 1018.8 hPa NW 3.7 km/h 3.7 km/h 48 % 0 mm
15:05 22.6 °C 11 °C 1018.8 hPa NW 3.7 km/h 3.7 km/h 48 % 0 mm
15:10 22.5 °C 11.2 °C 1018.8 hPa WNW 1.9 km/h 1.9 km/h 49 % 0 mm
15:15 22.4 °C 10.9 °C 1018.8 hPa WNW 1.9 km/h 1.9 km/h 48 % 0 mm
15:20 22.4 °C 11.2 °C 1018.8 hPa WNW 1.9 km/h 1.9 km/h 49 % 0 mm
15:25 22.4 °C 11.2 °C 1018.5 hPa NW 3.7 km/h 3.7 km/h 49 % 0 mm
15:30 22.3 °C 11.1 °C 1018.5 hPa Calm     49 % 0 mm
15:35 22.2 °C 11.3 °C 1018.5 hPa NW 1.9 km/h 1.9 km/h 50 % 0 mm
15:40 22.2 °C 11.3 °C 1018.5 hPa Calm     50 % 0 mm
15:45 22.2 °C 11.2 °C 1018.5 hPa Calm     50 % 0 mm
15:50 22.2 °C 11.2 °C 1018.5 hPa NW 3.7 km/h 3.7 km/h 50 % 0 mm
15:55 22.1 °C 11.5 °C 1018.5 hPa NW 3.7 km/h 3.7 km/h 51 % 0 mm
16:00 22.1 °C 11.4 °C 1018.5 hPa NW 5.6 km/h 5.6 km/h 51 % 0 mm
16:05 21.9 °C 11.6 °C 1018.5 hPa WNW 3.7 km/h 3.7 km/h 52 % 0 mm
16:10 21.8 °C 11.6 °C 1018.5 hPa NW 1.9 km/h 1.9 km/h 52 % 0 mm
16:15 21.8 °C 11.8 °C 1018.5 hPa NW 5.6 km/h 5.6 km/h 53 % 0 mm
16:20 21.7 °C 11.7 °C 1018.5 hPa NW 1.9 km/h 1.9 km/h 53 % 0 mm
16:25 21.7 °C 11.9 °C 1018.5 hPa NW 1.9 km/h 1.9 km/h 54 % 0 mm
16:30 21.6 °C 11.8 °C 1018.5 hPa NW 1.9 km/h 1.9 km/h 54 % 0 mm
16:36 21.4 °C 11.7 °C 1018.5 hPa WNW 1.9 km/h 1.9 km/h 54 % 0 mm
16:40 21.3 °C 11.9 °C 1018.5 hPa NW 1.9 km/h   55 % 0 mm
16:45 21.1 °C 12 °C 1018.5 hPa WNW 1.9 km/h   56 % 0 mm
16:50 20.9 °C 12.1 °C 1018.5 hPa Calm     57 % 0 mm
16:55 20.6 °C 12.1 °C 1018.5 hPa Calm     58 % 0 mm
17:00 20.3 °C 12.1 °C 1018.5 hPa Calm     59 % 0 mm
17:05 20.1 °C 11.8 °C 1018.5 hPa Calm     59 % 0 mm
17:11 19.9 °C 11.7 °C 1018.5 hPa Calm     59 % 0 mm
17:16 19.8 °C 11.8 °C 1018.5 hPa Calm     60 % 0 mm
17:21 19.5 °C 11.5 °C 1018.5 hPa Calm     60 % 0 mm
17:26 19.2 °C 11.5 °C 1018.5 hPa Calm     61 % 0 mm
17:31 19 °C 11.3 °C 1018.5 hPa Calm     61 % 0 mm
17:36 18.8 °C 11.3 °C 1018.5 hPa Calm     62 % 0 mm
17:41 18.4 °C 11.2 °C 1018.5 hPa Calm     63 % 0 mm
17:46 17.9 °C 11.3 °C 1018.8 hPa Calm     65 % 0 mm
17:51 17.6 °C 11.2 °C 1018.8 hPa Calm     66 % 0 mm
17:56 17.2 °C 11.3 °C 1018.8 hPa Calm     68 % 0 mm
18:01 16.8 °C 11.1 °C 1018.8 hPa Calm     69 % 0 mm
18:06 16.5 °C 11 °C 1018.8 hPa Calm     70 % 0 mm
18:11 16.4 °C 11.1 °C 1018.8 hPa Calm     71 % 0 mm
18:16 16.2 °C 10.9 °C 1018.8 hPa Calm     71 % 0 mm
18:21 15.9 °C 11.1 °C 1018.8 hPa Calm     73 % 0 mm
18:26 15.6 °C 11 °C 1019.2 hPa Calm     74 % 0 mm
18:31 15.3 °C 10.9 °C 1019.2 hPa Calm     75 % 0 mm
18:36 14.9 °C 10.7 °C 1019.2 hPa Calm     76 % 0 mm
18:41 14.7 °C 10.7 °C 1019.2 hPa Calm     77 % 0 mm
18:46 14.6 °C 10.4 °C 1019.2 hPa Calm     76 % 0 mm
18:51 14.1 °C 10.4 °C 1019.2 hPa Calm     79 % 0 mm
18:56 13.8 °C 10.4 °C 1019.5 hPa Calm     80 % 0 mm
19:01 13.7 °C 10.5 °C 1019.5 hPa Calm     81 % 0 mm
19:06 13.6 °C 10.4 °C 1019.5 hPa Calm     81 % 0 mm
19:11 13.5 °C 10.3 °C 1019.5 hPa Calm     81 % 0 mm
19:16 13.4 °C 10.4 °C 1019.5 hPa Calm     82 % 0 mm
19:21 13.4 °C 10.6 °C 1019.5 hPa Calm     83 % 0 mm
19:26 13.4 °C 10.4 °C 1019.5 hPa Calm     82 % 0 mm
19:31 13.3 °C 10.3 °C 1019.9 hPa Calm     82 % 0 mm
19:36 13.4 °C 10.4 °C 1019.9 hPa Calm     82 % 0 mm
19:41 13.6 °C 10.6 °C 1019.9 hPa Calm     82 % 0 mm
19:46 13.7 °C 10.4 °C 1019.9 hPa Calm     81 % 0 mm
19:51 13.5 °C 10.3 °C 1019.9 hPa Calm     81 % 0 mm
19:56 13.3 °C 10.3 °C 1019.9 hPa Calm     82 % 0 mm
20:01 13.4 °C 10.4 °C 1019.9 hPa Calm     82 % 0 mm
20:06 13.4 °C 10.4 °C 1019.9 hPa Calm     82 % 0 mm
20:11 13.4 °C 10.2 °C 1020.2 hPa Calm     81 % 0 mm
20:16 13.3 °C 10.3 °C 1020.2 hPa Calm     82 % 0 mm
20:21 13.2 °C 10.2 °C 1020.2 hPa Calm     82 % 0 mm
20:26 13.1 °C 10.1 °C 1020.2 hPa Calm     82 % 0 mm
20:31 12.9 °C 10.1 °C 1020.2 hPa Calm     83 % 0 mm
20:36 12.8 °C 9.9 °C 1020.2 hPa Calm     83 % 0 mm
20:41 12.7 °C 9.8 °C 1020.2 hPa Calm     83 % 0 mm
20:46 12.6 °C 10 °C 1020.2 hPa Calm     84 % 0 mm
20:51 12.5 °C 9.7 °C 1020.2 hPa Calm     83 % 0 mm
20:56 12.3 °C 9.7 °C 1020.2 hPa Calm     84 % 0 mm
21:01 12.2 °C 9.8 °C 1020.2 hPa Calm     85 % 0 mm
21:06 12.3 °C 9.8 °C 1020.2 hPa Calm     85 % 0 mm
21:11 12.1 °C 9.5 °C 1020.5 hPa Calm     84 % 0 mm
21:16 12.1 °C 9.8 °C 1020.2 hPa Calm     86 % 0 mm
21:21 12.2 °C 9.7 °C 1020.5 hPa Calm     85 % 0 mm
21:26 12 °C 9.6 °C 1020.5 hPa Calm     85 % 0 mm
21:31 11.8 °C 9.4 °C 1020.5 hPa Calm     85 % 0 mm
21:36 11.7 °C 9.4 °C 1020.5 hPa Calm     86 % 0 mm
21:41 11.6 °C 9.3 °C 1020.5 hPa Calm     86 % 0 mm
21:46 11.4 °C 9.2 °C 1020.5 hPa Calm     86 % 0 mm
21:51 11.3 °C 9.2 °C 1020.5 hPa Calm     87 % 0 mm
21:57 11.1 °C 8.8 °C 1020.5 hPa Calm     86 % 0 mm
22:02 11 °C 8.9 °C 1020.5 hPa Calm     87 % 0 mm
22:07 10.9 °C 9.1 °C 1020.5 hPa Calm     88 % 0 mm
22:12 10.9 °C 9.1 °C 1020.5 hPa Calm     88 % 0 mm
22:17 10.8 °C 8.9 °C 1020.5 hPa Calm     88 % 0 mm
22:22 10.7 °C 8.6 °C 1020.5 hPa Calm     87 % 0 mm
22:27 10.4 °C 8.4 °C 1020.5 hPa Calm     87 % 0 mm
22:32 10.3 °C 8.4 °C 1020.5 hPa Calm     88 % 0 mm
22:37 10.2 °C 8.3 °C 1020.5 hPa Calm     88 % 0 mm
22:42 10.2 °C 8.3 °C 1020.5 hPa Calm     88 % 0 mm
22:47 10.3 °C 8.7 °C 1020.5 hPa Calm     90 % 0 mm
22:52 10.3 °C 8.6 °C 1020.5 hPa Calm     89 % 0 mm
22:57 10.3 °C 8.7 °C 1020.5 hPa Calm     90 % 0 mm
23:02 10.3 °C 8.6 °C 1020.5 hPa Calm     89 % 0 mm
23:07 10.2 °C 8.4 °C 1020.5 hPa Calm     89 % 0 mm
23:12 10.1 °C 8.4 °C 1020.5 hPa Calm     89 % 0 mm
23:17 10 °C 8.1 °C 1020.5 hPa Calm     88 % 0 mm
23:22 9.7 °C 7.7 °C 1020.5 hPa Calm     87 % 0 mm
23:27 9.4 °C 7.3 °C 1020.2 hPa Calm     87 % 0 mm
23:32 9.2 °C 7.3 °C 1020.2 hPa Calm     88 % 0 mm
23:37 8.9 °C 7.2 °C 1020.2 hPa Calm     89 % 0 mm
23:42 8.9 °C 7.3 °C 1020.2 hPa Calm     90 % 0 mm
23:47 8.8 °C 7.2 °C 1020.2 hPa Calm     90 % 0 mm
23:52 8.7 °C 7.1 °C 1020.2 hPa Calm     90 % 0 mm
23:57 8.5 °C 6.9 °C 1020.2 hPa Calm     90 % 0 mm
Park Place, Exeter, Tulare County, California, USA
Compliments of Weather Underground - 2.75 mb